Rina Amoretti — IBRR — position and weather

sailwx.info

Track history (hours):
 
Tides and Currents Weather Stations Pressure Air Temp Water Temp Dewpoint Dewpoint Depression Visibility Wind Speed Wind Dir Waves Ship Positions

Rina Amoretti

Last reported at 2017-Sep-24 13:24 UTC. Time now 2017-Sep-25 04:30 UTC.
Position N 36°37' E 015°16'.

Length 120 m; draft 7 m.

Type: Tanker. MMSI: 247197000.

Date/timePositionNaut miles runAvg speedWind from/ knotsBaromVisibWave heightAir tempDewpointWater temp
2017-Sep-24 13:24N 36°37' E 015°16'613.7
2017-Sep-24 13:00N 36°32' E 015°13'713.8
2017-Sep-24 12:30N 36°26' E 015°08'1414.0
2017-Sep-24 11:31N 36°15' E 014°60'113.4
2017-Sep-24 11:28N 36°14' E 014°59'613.3
2017-Sep-24 11:00N 36°09' E 014°55'713.3
2017-Sep-24 10:30N 36°03' E 014°51'713.3
2017-Sep-24 10:00N 35°57' E 014°47'3 6.1
2017-Sep-24 09:29N 35°55' E 014°45'0 0.1
2017-Sep-24 08:59N 35°55' E 014°45'0 0.3
2017-Sep-24 08:20N 35°55' E 014°45'0 0.1
2017-Sep-24 07:59N 35°55' E 014°45'0 0.2
2017-Sep-24 07:29N 35°55' E 014°45'0 0.1
2017-Sep-24 06:59N 35°55' E 014°45'0 0.0
2017-Sep-24 06:29N 35°55' E 014°45'0 0.1
2017-Sep-24 05:59N 35°55' E 014°45'0 0.1
2017-Sep-24 05:29N 35°55' E 014°45'0 0.1
2017-Sep-24 04:59N 35°55' E 014°45'0 0.0
2017-Sep-24 04:26N 35°55' E 014°45'0 0.1
2017-Sep-24 03:59N 35°55' E 014°45'0 0.0
2017-Sep-24 03:29N 35°55' E 014°45'0 0.1
2017-Sep-24 02:59N 35°55' E 014°45'0 0.0
2017-Sep-24 02:29N 35°55' E 014°45'0 0.0
2017-Sep-24 01:59N 35°55' E 014°45'0 0.0
2017-Sep-24 01:29N 35°55' E 014°45'0 0.0
2017-Sep-24 00:59N 35°55' E 014°45'0 0.0
2017-Sep-24 00:29N 35°55' E 014°45'0 0.1
2017-Sep-23 23:59N 35°55' E 014°45'0 0.0
2017-Sep-23 23:29N 35°55' E 014°45'0 0.0
2017-Sep-23 22:59N 35°55' E 014°45'0 0.0
2017-Sep-23 22:29N 35°55' E 014°45'0 0.0
2017-Sep-23 21:59N 35°55' E 014°45'0 0.0
2017-Sep-23 21:29N 35°55' E 014°45'0 0.2
2017-Sep-23 20:59N 35°55' E 014°45'1 3.1
2017-Sep-23 20:30N 35°56' E 014°44'3 5.2
2017-Sep-23 20:00N 35°57' E 014°41'143 3.4
2017-Sep-22 02:00N 38°07' E 013°26'0 0.0
2017-Sep-22 01:30N 38°07' E 013°26'0 0.1
2017-Sep-22 01:00N 38°07' E 013°26'0 0.0
2017-Sep-22 00:30N 38°07' E 013°26'0 0.0
2017-Sep-22 00:00N 38°07' E 013°26'0 0.0
2017-Sep-21 23:30N 38°07' E 013°26'0 0.0
2017-Sep-21 23:00N 38°07' E 013°26'0 0.0
2017-Sep-21 22:30N 38°07' E 013°26'0 0.0
2017-Sep-21 22:00N 38°07' E 013°26'0 0.0
2017-Sep-21 21:30N 38°07' E 013°26'0 0.0
2017-Sep-21 21:00N 38°07' E 013°26'0 0.0
2017-Sep-21 20:30N 38°07' E 013°26'0 0.0
2017-Sep-21 20:00N 38°07' E 013°26'0 0.0
2017-Sep-21 19:30N 38°07' E 013°26'0 0.0
2017-Sep-21 19:00N 38°07' E 013°26'0 0.0
2017-Sep-21 18:30N 38°07' E 013°26'0 0.0
2017-Sep-21 18:00N 38°07' E 013°26'0 0.0
2017-Sep-21 17:30N 38°07' E 013°26'0 0.0
2017-Sep-21 17:00N 38°07' E 013°26'0 0.0
2017-Sep-21 16:30N 38°07' E 013°26'0 0.0
2017-Sep-21 16:00N 38°07' E 013°26'0 0.0
2017-Sep-21 15:30N 38°07' E 013°26'0 0.0
2017-Sep-21 15:00N 38°07' E 013°26'0 0.0
2017-Sep-21 14:30N 38°07' E 013°26'0 0.0
2017-Sep-21 14:00N 38°07' E 013°26'0 0.0
2017-Sep-21 13:30N 38°07' E 013°26'0 0.0
2017-Sep-21 13:00N 38°07' E 013°26'0 0.0
2017-Sep-21 12:30N 38°07' E 013°26'0 0.0
2017-Sep-21 12:00N 38°07' E 013°26'0 0.0
2017-Sep-21 11:30N 38°07' E 013°26'0 0.0
2017-Sep-21 11:00N 38°07' E 013°26'0 0.0
2017-Sep-21 10:30N 38°07' E 013°26'0 0.0
2017-Sep-21 10:00N 38°07' E 013°26'0 0.0
2017-Sep-21 09:30N 38°07' E 013°26'0 0.0
2017-Sep-21 09:00N 38°07' E 013°26'0 0.0
2017-Sep-21 08:30N 38°07' E 013°26'0 0.0
2017-Sep-21 08:00N 38°07' E 013°26'0 0.0
2017-Sep-21 07:30N 38°07' E 013°26'0 0.0
2017-Sep-21 07:00N 38°07' E 013°26'0 0.0
2017-Sep-21 06:30N 38°07' E 013°26'0 0.0
2017-Sep-21 06:00N 38°07' E 013°26'0 0.0
2017-Sep-21 05:30N 38°07' E 013°26'0 0.0
2017-Sep-21 05:00N 38°07' E 013°26'0 0.0
2017-Sep-21 04:30N 38°07' E 013°26'0 0.0
2017-Sep-21 04:00N 38°07' E 013°26'0 0.0
2017-Sep-21 03:30N 38°07' E 013°26'0 0.0
2017-Sep-21 02:57N 38°07' E 013°26'0 0.0
2017-Sep-21 02:30N 38°07' E 013°26'0 0.0
2017-Sep-21 02:00N 38°07' E 013°26'0 0.0
2017-Sep-21 01:30N 38°07' E 013°26'0 0.0
2017-Sep-21 01:00N 38°07' E 013°26'0 0.0
2017-Sep-21 00:30N 38°07' E 013°26'0 0.0
2017-Sep-21 00:00N 38°07' E 013°26'0 0.1
2017-Sep-20 23:30N 38°07' E 013°26'0 0.0
2017-Sep-20 23:00N 38°07' E 013°26'0 0.0
2017-Sep-20 22:30N 38°07' E 013°26'0 0.0
2017-Sep-20 22:00N 38°07' E 013°26'0 0.0
2017-Sep-20 21:30N 38°07' E 013°26'0 0.0
2017-Sep-20 21:00N 38°07' E 013°26'0 0.0
2017-Sep-20 20:30N 38°07' E 013°26'0 0.0
2017-Sep-20 20:00N 38°07' E 013°26'0 0.0
2017-Sep-20 19:30N 38°07' E 013°26'0 0.0
2017-Sep-20 19:00N 38°07' E 013°26'0 0.1
2017-Sep-20 18:29N 38°07' E 013°26'0 0.0
2017-Sep-20 17:59N 38°07' E 013°26'0 0.1
2017-Sep-20 17:29N 38°07' E 013°26'0 0.0
2017-Sep-20 16:59N 38°07' E 013°26'0 0.0
2017-Sep-20 16:29N 38°07' E 013°26'0 0.0
2017-Sep-20 15:59N 38°07' E 013°26'0 0.0
2017-Sep-20 15:29N 38°07' E 013°26'0 0.0
2017-Sep-20 14:59N 38°07' E 013°26'0 0.0
2017-Sep-20 13:59N 38°07' E 013°26'0 0.0
2017-Sep-20 13:29N 38°07' E 013°26'0 0.0
2017-Sep-20 12:59N 38°07' E 013°26'0 0.0
2017-Sep-20 12:29N 38°07' E 013°26'0 0.0
2017-Sep-20 11:56N 38°07' E 013°26'0 0.0
2017-Sep-20 11:29N 38°07' E 013°26'0 0.0
2017-Sep-20 10:59N 38°07' E 013°26'0 0.1
2017-Sep-20 10:29N 38°07' E 013°26'0 0.0
2017-Sep-20 09:59N 38°07' E 013°26'0 0.0
2017-Sep-20 09:29N 38°07' E 013°26'0 0.0
2017-Sep-20 08:59N 38°07' E 013°26'0 0.0
2017-Sep-20 08:29N 38°07' E 013°26'0 0.0
2017-Sep-20 07:59N 38°07' E 013°26'0 0.0
2017-Sep-20 07:29N 38°07' E 013°26'0 0.0
2017-Sep-20 06:59N 38°07' E 013°26'0 0.0
2017-Sep-20 06:29N 38°07' E 013°26'0 0.0
2017-Sep-20 05:59N 38°07' E 013°26'0 0.0
2017-Sep-20 05:29N 38°07' E 013°26'0 0.0
2017-Sep-20 04:59N 38°07' E 013°26'0 0.0
2017-Sep-20 04:26N 38°07' E 013°26'0 0.0
2017-Sep-20 03:59N 38°07' E 013°26'0 0.0
2017-Sep-20 03:29N 38°07' E 013°26'0 0.0
2017-Sep-20 02:59N 38°07' E 013°26'0 0.0
2017-Sep-20 02:29N 38°07' E 013°26'0 0.0
2017-Sep-20 01:59N 38°07' E 013°26'0 0.0
2017-Sep-20 01:29N 38°07' E 013°26'0 0.0
2017-Sep-20 00:59N 38°07' E 013°26'0 0.0
2017-Sep-20 00:29N 38°07' E 013°26'0 0.0
2017-Sep-19 23:59N 38°07' E 013°26'0 0.0
2017-Sep-19 23:29N 38°07' E 013°26'0 0.0
2017-Sep-19 22:59N 38°07' E 013°26'0 0.0
2017-Sep-19 22:29N 38°07' E 013°26'0 0.1
2017-Sep-19 21:59N 38°07' E 013°26'0 0.0
2017-Sep-19 21:29N 38°07' E 013°26'0 0.0
2017-Sep-19 20:59N 38°07' E 013°26'0 0.0
2017-Sep-19 20:29N 38°07' E 013°26'0 0.0
2017-Sep-19 19:59N 38°07' E 013°26'0 0.0
2017-Sep-19 19:29N 38°07' E 013°26'0 0.0
2017-Sep-19 18:59N 38°07' E 013°26'0 0.0
2017-Sep-19 18:29N 38°07' E 013°26'0 0.0
2017-Sep-19 17:59N 38°07' E 013°26'0 0.0
2017-Sep-19 17:29N 38°07' E 013°26'0 0.0
2017-Sep-19 16:59N 38°07' E 013°26'0 0.0
2017-Sep-19 16:29N 38°07' E 013°26'0 0.0
2017-Sep-19 15:59N 38°07' E 013°26'0 0.0
2017-Sep-19 15:29N 38°07' E 013°26'0 0.0
2017-Sep-19 14:59N 38°07' E 013°26'0 0.0
2017-Sep-19 14:29N 38°07' E 013°26'0 0.0
2017-Sep-19 13:59N 38°07' E 013°26'0 0.0
2017-Sep-19 13:29N 38°07' E 013°26'0 0.1
2017-Sep-19 12:59N 38°07' E 013°26'0 0.0
2017-Sep-19 12:29N 38°07' E 013°26'0 0.0
2017-Sep-19 11:59N 38°07' E 013°26'0 0.0
2017-Sep-19 11:29N 38°07' E 013°26'0 0.0
2017-Sep-19 10:59N 38°07' E 013°26'0 0.0
2017-Sep-19 10:29N 38°07' E 013°26'0 0.0
2017-Sep-19 09:59N 38°07' E 013°26'0 0.1
2017-Sep-19 09:29N 38°07' E 013°26'0 0.0
2017-Sep-19 08:59N 38°07' E 013°26'0 0.0
2017-Sep-19 08:29N 38°07' E 013°26'0 0.1
2017-Sep-19 07:59N 38°07' E 013°26'0 0.0
2017-Sep-19 07:29N 38°07' E 013°26'0 0.0
2017-Sep-19 06:59N 38°07' E 013°26'0 0.0
2017-Sep-19 06:29N 38°07' E 013°26'0 0.2
2017-Sep-19 05:59N 38°07' E 013°26'1 1.7
2017-Sep-19 05:30N 38°07' E 013°27'0 0.4
2017-Sep-19 05:00N 38°07' E 013°27'1 2.0
2017-Sep-19 04:30N 38°08' E 013°28'611.5
2017-Sep-19 04:00N 38°10' E 013°35'713.3
2017-Sep-19 03:30N 38°10' E 013°43'713.2
2017-Sep-19 03:00N 38°11' E 013°52'612.4
2017-Sep-19 02:30N 38°12' E 013°59'612.3
2017-Sep-19 02:00N 38°13' E 014°07'612.2
2017-Sep-19 01:30N 38°13' E 014°15'1112.4
2017-Sep-19 00:38N 38°14' E 014°29'212.5
2017-Sep-19 00:30N 38°15' E 014°31'612.4
2017-Sep-19 00:00N 38°15' E 014°39'612.4
2017-Sep-18 23:30N 38°16' E 014°46'613.0
2017-Sep-18 23:00N 38°17' E 014°55'612.7
2017-Sep-18 22:30N 38°17' E 015°03'612.8
2017-Sep-18 22:00N 38°18' E 015°11'612.9
2017-Sep-18 21:30N 38°19' E 015°19'612.9
2017-Sep-18 21:00N 38°19' E 015°27'612.7
2017-Sep-18 20:30N 38°20' E 015°35'612.6
2017-Sep-18 20:00N 38°18' E 015°43'3 6.9
2017-Sep-18 19:30N 38°15' E 015°40'4 8.3
2017-Sep-18 19:00N 38°12' E 015°37'612.5
2017-Sep-18 18:30N 38°06' E 015°36'713.6
2017-Sep-18 18:00N 37°59' E 015°35'712.6
2017-Sep-18 17:29N 37°53' E 015°33'611.9
2017-Sep-18 17:00N 37°47' E 015°32'612.3
2017-Sep-18 16:30N 37°41' E 015°30'712.8
2017-Sep-18 16:00N 37°35' E 015°27'612.6
2017-Sep-18 15:30N 37°29' E 015°25'20 0.7
2017-Sep-17 10:41N 37°13' E 015°11'0 0.1
2017-Sep-17 09:17N 37°13' E 015°12'1 0.2
2017-Sep-17 03:58N 37°13' E 015°12'3 0.2
2017-Sep-16 15:18N 37°12' E 015°16'2 6.5
2017-Sep-16 15:00N 37°14' E 015°18'713.6
2017-Sep-16 14:30N 37°20' E 015°21'713.5
2017-Sep-16 14:00N 37°26' E 015°23'713.2
2017-Sep-16 13:30N 37°33' E 015°26'713.5
2017-Sep-16 13:00N 37°39' E 015°29'713.8
2017-Sep-16 12:30N 37°45' E 015°32'713.8
2017-Sep-16 12:00N 37°52' E 015°33'713.9
2017-Sep-16 11:30N 37°59' E 015°34'714.1
2017-Sep-16 11:00N 38°06' E 015°35'815.0
2017-Sep-16 10:30N 38°14' E 015°36'611.5
2017-Sep-16 10:00N 38°18' E 015°40'612.9
2017-Sep-16 09:30N 38°20' E 015°32'713.9
2017-Sep-16 09:00N 38°19' E 015°24'713.6
2017-Sep-16 08:30N 38°18' E 015°15'713.4
2017-Sep-16 08:00N 38°18' E 015°07'713.2
2017-Sep-16 07:30N 38°17' E 014°58'713.1
2017-Sep-16 07:00N 38°16' E 014°50'713.1
2017-Sep-16 06:30N 38°16' E 014°42'713.0
2017-Sep-16 06:00N 38°15' E 014°33'713.2
2017-Sep-16 05:30N 38°14' E 014°25'613.0
2017-Sep-16 05:00N 38°13' E 014°17'713.2
2017-Sep-16 04:30N 38°13' E 014°08'713.4
2017-Sep-16 04:00N 38°12' E 014°00'713.4
2017-Sep-16 03:30N 38°11' E 013°51'713.5
2017-Sep-16 03:00N 38°11' E 013°43'713.5
2017-Sep-16 02:30N 38°10' E 013°34'713.2
2017-Sep-16 02:01N 38°07' E 013°27'1 2.2
2017-Sep-16 01:28N 38°06' E 013°26'0 0.1
2017-Sep-16 01:01N 38°06' E 013°26'0 0.0
2017-Sep-16 00:31N 38°06' E 013°26'0 0.0
2017-Sep-16 00:00N 38°06' E 013°26'0 0.0
2017-Sep-15 23:30N 38°06' E 013°26'0 0.0
2017-Sep-15 23:00N 38°06' E 013°26'0 0.0
2017-Sep-15 22:30N 38°06' E 013°26'0 0.0
2017-Sep-15 22:00N 38°06' E 013°26'0 0.0
2017-Sep-15 21:27N 38°06' E 013°26'0 0.0
2017-Sep-15 21:00N 38°06' E 013°26'0 0.0
2017-Sep-15 20:30N 38°06' E 013°26'0 0.0
2017-Sep-15 20:00N 38°06' E 013°26'0 0.0
2017-Sep-15 19:30N 38°06' E 013°26'0 0.0
2017-Sep-15 19:00N 38°06' E 013°26'0 0.0
2017-Sep-15 18:30N 38°06' E 013°26'0 0.0
2017-Sep-15 18:00N 38°06' E 013°26'0 0.0
2017-Sep-15 17:30N 38°06' E 013°26'0 0.0
2017-Sep-15 17:00N 38°06' E 013°26'0 0.0
2017-Sep-15 16:30N 38°06' E 013°26'0 0.0
2017-Sep-15 16:00N 38°06' E 013°26'0 0.0
2017-Sep-15 15:30N 38°06' E 013°26'0 0.0
2017-Sep-15 15:00N 38°06' E 013°26'0 0.0
2017-Sep-15 14:30N 38°06' E 013°26'0 0.0
2017-Sep-15 14:00N 38°06' E 013°26'0 0.0
2017-Sep-15 13:30N 38°06' E 013°26'0 0.0
2017-Sep-15 13:00N 38°06' E 013°26'0 0.0
2017-Sep-15 12:30N 38°06' E 013°26'0 0.0
2017-Sep-15 12:00N 38°06' E 013°26'0 0.0
2017-Sep-15 11:30N 38°06' E 013°26'0 0.0
2017-Sep-15 11:00N 38°06' E 013°26'0 0.0
2017-Sep-15 10:30N 38°06' E 013°26'0 0.0
2017-Sep-15 10:00N 38°06' E 013°26'0 0.0
2017-Sep-15 09:30N 38°06' E 013°26'0 0.0
2017-Sep-15 09:00N 38°06' E 013°26'0 0.0
2017-Sep-15 08:30N 38°06' E 013°26'0 0.0
2017-Sep-15 08:01N 38°06' E 013°26'0 0.2
2017-Sep-15 07:30N 38°06' E 013°26'1 2.1
2017-Sep-15 07:01N 38°07' E 013°27'0 0.5
2017-Sep-15 06:28N 38°07' E 013°26'0 0.0
2017-Sep-15 05:58N 38°07' E 013°26'0 0.0
2017-Sep-15 05:28N 38°07' E 013°26'0 0.1
2017-Sep-15 04:55N 38°07' E 013°26'0 0.0
2017-Sep-15 04:28N 38°07' E 013°26'0 0.0
2017-Sep-15 03:58N 38°07' E 013°26'0 0.1
2017-Sep-15 03:28N 38°07' E 013°26'0 0.0
2017-Sep-15 02:58N 38°07' E 013°26'0 0.0
2017-Sep-15 02:28N 38°07' E 013°26'0 0.0
2017-Sep-15 01:58N 38°07' E 013°26'0 0.1
2017-Sep-15 01:28N 38°07' E 013°26'0 0.0
2017-Sep-15 00:58N 38°07' E 013°26'0 0.1
2017-Sep-15 00:28N 38°07' E 013°26'0 0.1
2017-Sep-14 23:59N 38°07' E 013°26'2 3.2
2017-Sep-14 23:30N 38°08' E 013°28'612.6
2017-Sep-14 23:00N 38°10' E 013°35'713.9
2017-Sep-14 22:31N 38°11' E 013°44'713.9
2017-Sep-14 22:00N 38°11' E 013°53'713.9
2017-Sep-14 21:30N 38°12' E 014°02'714.0
2017-Sep-14 21:00N 38°13' E 014°11'814.2
2017-Sep-14 20:28N 38°14' E 014°21'614.3
2017-Sep-14 20:00N 38°14' E 014°29'714.0
2017-Sep-14 19:30N 38°15' E 014°38'713.8
2017-Sep-14 19:01N 38°16' E 014°46'714.2
2017-Sep-14 18:31N 38°17' E 014°55'713.8
2017-Sep-14 18:01N 38°17' E 015°04'714.1
2017-Sep-14 17:31N 38°19' E 015°13'714.1
2017-Sep-14 17:01N 38°19' E 015°22'714.1
2017-Sep-14 16:31N 38°20' E 015°31'612.9
2017-Sep-14 16:01N 38°19' E 015°39'4 7.3
2017-Sep-14 15:31N 38°16' E 015°42'510.4
2017-Sep-14 15:01N 38°13' E 015°37'611.6
2017-Sep-14 14:31N 38°07' E 015°36'611.7
2017-Sep-14 14:00N 38°01' E 015°35'612.6
2017-Sep-14 13:30N 37°55' E 015°34'  
Track history (hours):
 
Tides and Currents Weather Stations Pressure Air Temp Water Temp Dewpoint Dewpoint Depression Visibility Wind Speed Wind Dir Waves Ship Positions

Rina Amoretti

Last reported at 2017-Sep-24 13:24 UTC. Time now 2017-Sep-25 04:30 UTC.
Position N 36°37' E 015°16'.

Length 120 m; draft 7 m.

Type: Tanker. MMSI: 247197000.

Date/timePositionNaut miles runAvg speedWind from/ knotsBaromVisibWave heightAir tempDewpointWater temp
2017-Sep-24 13:24N 36°37' E 015°16'613.7
2017-Sep-24 13:00N 36°32' E 015°13'713.8
2017-Sep-24 12:30N 36°26' E 015°08'1414.0
2017-Sep-24 11:31N 36°15' E 014°60'113.4
2017-Sep-24 11:28N 36°14' E 014°59'613.3
2017-Sep-24 11:00N 36°09' E 014°55'713.3
2017-Sep-24 10:30N 36°03' E 014°51'713.3
2017-Sep-24 10:00N 35°57' E 014°47'3 6.1
2017-Sep-24 09:29N 35°55' E 014°45'0 0.1
2017-Sep-24 08:59N 35°55' E 014°45'0 0.3
2017-Sep-24 08:20N 35°55' E 014°45'0 0.1
2017-Sep-24 07:59N 35°55' E 014°45'0 0.2
2017-Sep-24 07:29N 35°55' E 014°45'0 0.1
2017-Sep-24 06:59N 35°55' E 014°45'0 0.0
2017-Sep-24 06:29N 35°55' E 014°45'0 0.1
2017-Sep-24 05:59N 35°55' E 014°45'0 0.1
2017-Sep-24 05:29N 35°55' E 014°45'0 0.1
2017-Sep-24 04:59N 35°55' E 014°45'0 0.0
2017-Sep-24 04:26N 35°55' E 014°45'0 0.1
2017-Sep-24 03:59N 35°55' E 014°45'0 0.0
2017-Sep-24 03:29N 35°55' E 014°45'0 0.1
2017-Sep-24 02:59N 35°55' E 014°45'0 0.0
2017-Sep-24 02:29N 35°55' E 014°45'0 0.0
2017-Sep-24 01:59N 35°55' E 014°45'0 0.0
2017-Sep-24 01:29N 35°55' E 014°45'0 0.0
2017-Sep-24 00:59N 35°55' E 014°45'0 0.0
2017-Sep-24 00:29N 35°55' E 014°45'0 0.1
2017-Sep-23 23:59N 35°55' E 014°45'0 0.0
2017-Sep-23 23:29N 35°55' E 014°45'0 0.0
2017-Sep-23 22:59N 35°55' E 014°45'0 0.0
2017-Sep-23 22:29N 35°55' E 014°45'0 0.0
2017-Sep-23 21:59N 35°55' E 014°45'0 0.0
2017-Sep-23 21:29N 35°55' E 014°45'0 0.2
2017-Sep-23 20:59N 35°55' E 014°45'1 3.1
2017-Sep-23 20:30N 35°56' E 014°44'3 5.2
2017-Sep-23 20:00N 35°57' E 014°41'143 3.4
2017-Sep-22 02:00N 38°07' E 013°26'0 0.0
2017-Sep-22 01:30N 38°07' E 013°26'0 0.1
2017-Sep-22 01:00N 38°07' E 013°26'0 0.0
2017-Sep-22 00:30N 38°07' E 013°26'0 0.0
2017-Sep-22 00:00N 38°07' E 013°26'0 0.0
2017-Sep-21 23:30N 38°07' E 013°26'0 0.0
2017-Sep-21 23:00N 38°07' E 013°26'0 0.0
2017-Sep-21 22:30N 38°07' E 013°26'0 0.0
2017-Sep-21 22:00N 38°07' E 013°26'0 0.0
2017-Sep-21 21:30N 38°07' E 013°26'0 0.0
2017-Sep-21 21:00N 38°07' E 013°26'0 0.0
2017-Sep-21 20:30N 38°07' E 013°26'0 0.0
2017-Sep-21 20:00N 38°07' E 013°26'0 0.0
2017-Sep-21 19:30N 38°07' E 013°26'0 0.0
2017-Sep-21 19:00N 38°07' E 013°26'0 0.0
2017-Sep-21 18:30N 38°07' E 013°26'0 0.0
2017-Sep-21 18:00N 38°07' E 013°26'0 0.0
2017-Sep-21 17:30N 38°07' E 013°26'0 0.0
2017-Sep-21 17:00N 38°07' E 013°26'0 0.0
2017-Sep-21 16:30N 38°07' E 013°26'0 0.0
2017-Sep-21 16:00N 38°07' E 013°26'0 0.0
2017-Sep-21 15:30N 38°07' E 013°26'0 0.0
2017-Sep-21 15:00N 38°07' E 013°26'0 0.0
2017-Sep-21 14:30N 38°07' E 013°26'0 0.0
2017-Sep-21 14:00N 38°07' E 013°26'0 0.0
2017-Sep-21 13:30N 38°07' E 013°26'0 0.0
2017-Sep-21 13:00N 38°07' E 013°26'0 0.0
2017-Sep-21 12:30N 38°07' E 013°26'0 0.0
2017-Sep-21 12:00N 38°07' E 013°26'0 0.0
2017-Sep-21 11:30N 38°07' E 013°26'0 0.0
2017-Sep-21 11:00N 38°07' E 013°26'0 0.0
2017-Sep-21 10:30N 38°07' E 013°26'0 0.0
2017-Sep-21 10:00N 38°07' E 013°26'0 0.0
2017-Sep-21 09:30N 38°07' E 013°26'0 0.0
2017-Sep-21 09:00N 38°07' E 013°26'0 0.0
2017-Sep-21 08:30N 38°07' E 013°26'0 0.0
2017-Sep-21 08:00N 38°07' E 013°26'0 0.0
2017-Sep-21 07:30N 38°07' E 013°26'0 0.0
2017-Sep-21 07:00N 38°07' E 013°26'0 0.0
2017-Sep-21 06:30N 38°07' E 013°26'0 0.0
2017-Sep-21 06:00N 38°07' E 013°26'0 0.0
2017-Sep-21 05:30N 38°07' E 013°26'0 0.0
2017-Sep-21 05:00N 38°07' E 013°26'0 0.0
2017-Sep-21 04:30N 38°07' E 013°26'0 0.0
2017-Sep-21 04:00N 38°07' E 013°26'0 0.0
2017-Sep-21 03:30N 38°07' E 013°26'0 0.0
2017-Sep-21 02:57N 38°07' E 013°26'0 0.0
2017-Sep-21 02:30N 38°07' E 013°26'0 0.0
2017-Sep-21 02:00N 38°07' E 013°26'0 0.0
2017-Sep-21 01:30N 38°07' E 013°26'0 0.0
2017-Sep-21 01:00N 38°07' E 013°26'0 0.0
2017-Sep-21 00:30N 38°07' E 013°26'0 0.0
2017-Sep-21 00:00N 38°07' E 013°26'0 0.1
2017-Sep-20 23:30N 38°07' E 013°26'0 0.0
2017-Sep-20 23:00N 38°07' E 013°26'0 0.0
2017-Sep-20 22:30N 38°07' E 013°26'0 0.0
2017-Sep-20 22:00N 38°07' E 013°26'0 0.0
2017-Sep-20 21:30N 38°07' E 013°26'0 0.0
2017-Sep-20 21:00N 38°07' E 013°26'0 0.0
2017-Sep-20 20:30N 38°07' E 013°26'0 0.0
2017-Sep-20 20:00N 38°07' E 013°26'0 0.0
2017-Sep-20 19:30N 38°07' E 013°26'0 0.0
2017-Sep-20 19:00N 38°07' E 013°26'0 0.1
2017-Sep-20 18:29N 38°07' E 013°26'0 0.0
2017-Sep-20 17:59N 38°07' E 013°26'0 0.1
2017-Sep-20 17:29N 38°07' E 013°26'0 0.0
2017-Sep-20 16:59N 38°07' E 013°26'0 0.0
2017-Sep-20 16:29N 38°07' E 013°26'0 0.0
2017-Sep-20 15:59N 38°07' E 013°26'0 0.0
2017-Sep-20 15:29N 38°07' E 013°26'0 0.0
2017-Sep-20 14:59N 38°07' E 013°26'0 0.0
2017-Sep-20 13:59N 38°07' E 013°26'0 0.0
2017-Sep-20 13:29N 38°07' E 013°26'0 0.0
2017-Sep-20 12:59N 38°07' E 013°26'0 0.0
2017-Sep-20 12:29N 38°07' E 013°26'0 0.0
2017-Sep-20 11:56N 38°07' E 013°26'0 0.0
2017-Sep-20 11:29N 38°07' E 013°26'0 0.0
2017-Sep-20 10:59N 38°07' E 013°26'0 0.1
2017-Sep-20 10:29N 38°07' E 013°26'0 0.0
2017-Sep-20 09:59N 38°07' E 013°26'0 0.0
2017-Sep-20 09:29N 38°07' E 013°26'0 0.0
2017-Sep-20 08:59N 38°07' E 013°26'0 0.0
2017-Sep-20 08:29N 38°07' E 013°26'0 0.0
2017-Sep-20 07:59N 38°07' E 013°26'0 0.0
2017-Sep-20 07:29N 38°07' E 013°26'0 0.0
2017-Sep-20 06:59N 38°07' E 013°26'0 0.0
2017-Sep-20 06:29N 38°07' E 013°26'0 0.0
2017-Sep-20 05:59N 38°07' E 013°26'0 0.0
2017-Sep-20 05:29N 38°07' E 013°26'0 0.0
2017-Sep-20 04:59N 38°07' E 013°26'0 0.0
2017-Sep-20 04:26N 38°07' E 013°26'0 0.0
2017-Sep-20 03:59N 38°07' E 013°26'0 0.0
2017-Sep-20 03:29N 38°07' E 013°26'0 0.0
2017-Sep-20 02:59N 38°07' E 013°26'0 0.0
2017-Sep-20 02:29N 38°07' E 013°26'0 0.0
2017-Sep-20 01:59N 38°07' E 013°26'0 0.0
2017-Sep-20 01:29N 38°07' E 013°26'0 0.0
2017-Sep-20 00:59N 38°07' E 013°26'0 0.0
2017-Sep-20 00:29N 38°07' E 013°26'0 0.0
2017-Sep-19 23:59N 38°07' E 013°26'0 0.0
2017-Sep-19 23:29N 38°07' E 013°26'0 0.0
2017-Sep-19 22:59N 38°07' E 013°26'0 0.0
2017-Sep-19 22:29N 38°07' E 013°26'0 0.1
2017-Sep-19 21:59N 38°07' E 013°26'0 0.0
2017-Sep-19 21:29N 38°07' E 013°26'0 0.0
2017-Sep-19 20:59N 38°07' E 013°26'0 0.0
2017-Sep-19 20:29N 38°07' E 013°26'0 0.0
2017-Sep-19 19:59N 38°07' E 013°26'0 0.0
2017-Sep-19 19:29N 38°07' E 013°26'0 0.0
2017-Sep-19 18:59N 38°07' E 013°26'0 0.0
2017-Sep-19 18:29N 38°07' E 013°26'0 0.0
2017-Sep-19 17:59N 38°07' E 013°26'0 0.0
2017-Sep-19 17:29N 38°07' E 013°26'0 0.0
2017-Sep-19 16:59N 38°07' E 013°26'0 0.0
2017-Sep-19 16:29N 38°07' E 013°26'0 0.0
2017-Sep-19 15:59N 38°07' E 013°26'0 0.0
2017-Sep-19 15:29N 38°07' E 013°26'0 0.0
2017-Sep-19 14:59N 38°07' E 013°26'0 0.0
2017-Sep-19 14:29N 38°07' E 013°26'0 0.0
2017-Sep-19 13:59N 38°07' E 013°26'0 0.0
2017-Sep-19 13:29N 38°07' E 013°26'0 0.1
2017-Sep-19 12:59N 38°07' E 013°26'0 0.0
2017-Sep-19 12:29N 38°07' E 013°26'0 0.0
2017-Sep-19 11:59N 38°07' E 013°26'0 0.0
2017-Sep-19 11:29N 38°07' E 013°26'0 0.0
2017-Sep-19 10:59N 38°07' E 013°26'0 0.0
2017-Sep-19 10:29N 38°07' E 013°26'0 0.0
2017-Sep-19 09:59N 38°07' E 013°26'0 0.1
2017-Sep-19 09:29N 38°07' E 013°26'0 0.0
2017-Sep-19 08:59N 38°07' E 013°26'0 0.0
2017-Sep-19 08:29N 38°07' E 013°26'0 0.1
2017-Sep-19 07:59N 38°07' E 013°26'0 0.0
2017-Sep-19 07:29N 38°07' E 013°26'0 0.0
2017-Sep-19 06:59N 38°07' E 013°26'0 0.0
2017-Sep-19 06:29N 38°07' E 013°26'0 0.2
2017-Sep-19 05:59N 38°07' E 013°26'1 1.7
2017-Sep-19 05:30N 38°07' E 013°27'0 0.4
2017-Sep-19 05:00N 38°07' E 013°27'1 2.0
2017-Sep-19 04:30N 38°08' E 013°28'611.5
2017-Sep-19 04:00N 38°10' E 013°35'713.3
2017-Sep-19 03:30N 38°10' E 013°43'713.2
2017-Sep-19 03:00N 38°11' E 013°52'612.4
2017-Sep-19 02:30N 38°12' E 013°59'612.3
2017-Sep-19 02:00N 38°13' E 014°07'612.2
2017-Sep-19 01:30N 38°13' E 014°15'1112.4
2017-Sep-19 00:38N 38°14' E 014°29'212.5
2017-Sep-19 00:30N 38°15' E 014°31'612.4
2017-Sep-19 00:00N 38°15' E 014°39'612.4
2017-Sep-18 23:30N 38°16' E 014°46'613.0
2017-Sep-18 23:00N 38°17' E 014°55'612.7
2017-Sep-18 22:30N 38°17' E 015°03'612.8
2017-Sep-18 22:00N 38°18' E 015°11'612.9
2017-Sep-18 21:30N 38°19' E 015°19'612.9
2017-Sep-18 21:00N 38°19' E 015°27'612.7
2017-Sep-18 20:30N 38°20' E 015°35'612.6
2017-Sep-18 20:00N 38°18' E 015°43'3 6.9
2017-Sep-18 19:30N 38°15' E 015°40'4 8.3
2017-Sep-18 19:00N 38°12' E 015°37'612.5
2017-Sep-18 18:30N 38°06' E 015°36'713.6
2017-Sep-18 18:00N 37°59' E 015°35'712.6
2017-Sep-18 17:29N 37°53' E 015°33'611.9
2017-Sep-18 17:00N 37°47' E 015°32'612.3
2017-Sep-18 16:30N 37°41' E 015°30'712.8
2017-Sep-18 16:00N 37°35' E 015°27'612.6
2017-Sep-18 15:30N 37°29' E 015°25'20 0.7
2017-Sep-17 10:41N 37°13' E 015°11'0 0.1
2017-Sep-17 09:17N 37°13' E 015°12'1 0.2
2017-Sep-17 03:58N 37°13' E 015°12'3 0.2
2017-Sep-16 15:18N 37°12' E 015°16'2 6.5
2017-Sep-16 15:00N 37°14' E 015°18'713.6
2017-Sep-16 14:30N 37°20' E 015°21'713.5
2017-Sep-16 14:00N 37°26' E 015°23'713.2
2017-Sep-16 13:30N 37°33' E 015°26'713.5
2017-Sep-16 13:00N 37°39' E 015°29'713.8
2017-Sep-16 12:30N 37°45' E 015°32'713.8
2017-Sep-16 12:00N 37°52' E 015°33'713.9
2017-Sep-16 11:30N 37°59' E 015°34'714.1
2017-Sep-16 11:00N 38°06' E 015°35'815.0
2017-Sep-16 10:30N 38°14' E 015°36'611.5
2017-Sep-16 10:00N 38°18' E 015°40'612.9
2017-Sep-16 09:30N 38°20' E 015°32'713.9
2017-Sep-16 09:00N 38°19' E 015°24'713.6
2017-Sep-16 08:30N 38°18' E 015°15'713.4
2017-Sep-16 08:00N 38°18' E 015°07'713.2
2017-Sep-16 07:30N 38°17' E 014°58'713.1
2017-Sep-16 07:00N 38°16' E 014°50'713.1
2017-Sep-16 06:30N 38°16' E 014°42'713.0
2017-Sep-16 06:00N 38°15' E 014°33'713.2
2017-Sep-16 05:30N 38°14' E 014°25'613.0
2017-Sep-16 05:00N 38°13' E 014°17'713.2
2017-Sep-16 04:30N 38°13' E 014°08'713.4
2017-Sep-16 04:00N 38°12' E 014°00'713.4
2017-Sep-16 03:30N 38°11' E 013°51'713.5
2017-Sep-16 03:00N 38°11' E 013°43'713.5
2017-Sep-16 02:30N 38°10' E 013°34'713.2
2017-Sep-16 02:01N 38°07' E 013°27'1 2.2
2017-Sep-16 01:28N 38°06' E 013°26'0 0.1
2017-Sep-16 01:01N 38°06' E 013°26'0 0.0
2017-Sep-16 00:31N 38°06' E 013°26'0 0.0
2017-Sep-16 00:00N 38°06' E 013°26'0 0.0
2017-Sep-15 23:30N 38°06' E 013°26'0 0.0
2017-Sep-15 23:00N 38°06' E 013°26'0 0.0
2017-Sep-15 22:30N 38°06' E 013°26'0 0.0
2017-Sep-15 22:00N 38°06' E 013°26'0 0.0
2017-Sep-15 21:27N 38°06' E 013°26'0 0.0
2017-Sep-15 21:00N 38°06' E 013°26'0 0.0
2017-Sep-15 20:30N 38°06' E 013°26'0 0.0
2017-Sep-15 20:00N 38°06' E 013°26'0 0.0
2017-Sep-15 19:30N 38°06' E 013°26'0 0.0
2017-Sep-15 19:00N 38°06' E 013°26'0 0.0
2017-Sep-15 18:30N 38°06' E 013°26'0 0.0
2017-Sep-15 18:00N 38°06' E 013°26'0 0.0
2017-Sep-15 17:30N 38°06' E 013°26'0 0.0
2017-Sep-15 17:00N 38°06' E 013°26'0 0.0
2017-Sep-15 16:30N 38°06' E 013°26'0 0.0
2017-Sep-15 16:00N 38°06' E 013°26'0 0.0
2017-Sep-15 15:30N 38°06' E 013°26'0 0.0
2017-Sep-15 15:00N 38°06' E 013°26'0 0.0
2017-Sep-15 14:30N 38°06' E 013°26'0 0.0
2017-Sep-15 14:00N 38°06' E 013°26'0 0.0
2017-Sep-15 13:30N 38°06' E 013°26'0 0.0
2017-Sep-15 13:00N 38°06' E 013°26'0 0.0
2017-Sep-15 12:30N 38°06' E 013°26'0 0.0
2017-Sep-15 12:00N 38°06' E 013°26'0 0.0
2017-Sep-15 11:30N 38°06' E 013°26'0 0.0
2017-Sep-15 11:00N 38°06' E 013°26'0 0.0
2017-Sep-15 10:30N 38°06' E 013°26'0 0.0
2017-Sep-15 10:00N 38°06' E 013°26'0 0.0
2017-Sep-15 09:30N 38°06' E 013°26'0 0.0
2017-Sep-15 09:00N 38°06' E 013°26'0 0.0
2017-Sep-15 08:30N 38°06' E 013°26'0 0.0
2017-Sep-15 08:01N 38°06' E 013°26'0 0.2
2017-Sep-15 07:30N 38°06' E 013°26'1 2.1
2017-Sep-15 07:01N 38°07' E 013°27'0 0.5
2017-Sep-15 06:28N 38°07' E 013°26'0 0.0
2017-Sep-15 05:58N 38°07' E 013°26'0 0.0
2017-Sep-15 05:28N 38°07' E 013°26'0 0.1
2017-Sep-15 04:55N 38°07' E 013°26'0 0.0
2017-Sep-15 04:28N 38°07' E 013°26'0 0.0
2017-Sep-15 03:58N 38°07' E 013°26'0 0.1
2017-Sep-15 03:28N 38°07' E 013°26'0 0.0
2017-Sep-15 02:58N 38°07' E 013°26'0 0.0
2017-Sep-15 02:28N 38°07' E 013°26'0 0.0
2017-Sep-15 01:58N 38°07' E 013°26'0 0.1
2017-Sep-15 01:28N 38°07' E 013°26'0 0.0
2017-Sep-15 00:58N 38°07' E 013°26'0 0.1
2017-Sep-15 00:28N 38°07' E 013°26'0 0.1
2017-Sep-14 23:59N 38°07' E 013°26'2 3.2
2017-Sep-14 23:30N 38°08' E 013°28'612.6
2017-Sep-14 23:00N 38°10' E 013°35'713.9
2017-Sep-14 22:31N 38°11' E 013°44'713.9
2017-Sep-14 22:00N 38°11' E 013°53'713.9
2017-Sep-14 21:30N 38°12' E 014°02'714.0
2017-Sep-14 21:00N 38°13' E 014°11'814.2
2017-Sep-14 20:28N 38°14' E 014°21'614.3
2017-Sep-14 20:00N 38°14' E 014°29'714.0
2017-Sep-14 19:30N 38°15' E 014°38'713.8
2017-Sep-14 19:01N 38°16' E 014°46'714.2
2017-Sep-14 18:31N 38°17' E 014°55'713.8
2017-Sep-14 18:01N 38°17' E 015°04'714.1
2017-Sep-14 17:31N 38°19' E 015°13'714.1
2017-Sep-14 17:01N 38°19' E 015°22'714.1
2017-Sep-14 16:31N 38°20' E 015°31'612.9
2017-Sep-14 16:01N 38°19' E 015°39'4 7.3
2017-Sep-14 15:31N 38°16' E 015°42'510.4
2017-Sep-14 15:01N 38°13' E 015°37'611.6
2017-Sep-14 14:31N 38°07' E 015°36'611.7
2017-Sep-14 14:00N 38°01' E 015°35'612.6
2017-Sep-14 13:30N 37°55' E 015°34'  

Dump ship's entire track history